Leeward Point Field
MUGM : now visible

Airfield :











YOU CAN JOIN US ON...

 
LOGIN :

Register | Disclaimer

   EN    FR    IT 

 









Legend :    VFR   Marginal VFR   IFR   Intensive IFR   Very Intensive IFR
Visi :
Ceiling :
>= 8 km
>= 3000ft
5 to 8 km
1000 to 3000 ft
1500m to 5 km
500 to 1000 ft
800 to 1500m
200 to 500 ft
< 800m
< 200 ft
Symbols :   Thunderstorms  Fog  Heavy snow  Heavy precipitations  Wind > 20 kt






- Airport Elevation : 56 ft
- IATA code : NBW


MUGM - Leeward Point Field

CURRENT METAR :
  • 222251Z 11011KT 10SM FEW025 BKN055 BKN280 30/24 A3002 RMK AO2 SLP165 CB DSNT S T2 SET T03000244 $

EXPIRED METARs :
  • 222151Z 12013KT 10SM FEW025 FEW050 BKN280 31/24 A3001 RMK AO2 SLP160 T2 SET T03060239 $
  • 222051Z 12013KT 10SM FEW025 FEW050 BKN280 32/24 A3001 RMK AO2 SLP162 CB DSNT NE T2 SET T03170244 56017 $

TAF TAF MUGM
Valid from the 22 at 23:00 until the 23 at 23:00 UTC


2223/2323 09011KT 9999 VCTS FEW025CB BKN060 BKN280 QNH3001INS
BECMG 2301/2303 VRB06KT 9999 VCTS FEW025CB SCT060 BKN280 QNH3002INS
BECMG 2303/2305 35006KT 9999 VCSH FEW025CB FEW060 SCT280 QNH3000INS
FM231600 12018G28KT 9999 VCTS FEW025CB SCT090 BKN280 QNH2997INS
FM232200 10011KT 9999 VCSH FEW025CB FEW060 SCT280 QNH2998INS T25/2311Z T33/2318Z FN20025



MET'MAP, your aeronautical weather chart ! - Copyright ORBIFLY December 2007 - Disclaimer

ORBIFLY MET'MAP TEAM :

Programming & Development : Alexandra Zaïnal
Concept & original design : Baudouin d'Aumeries
Assistance for programming : Marc-Olivier Méhu
Technical & hardware support : Manuel Goepfert

Contact : metmap@orbifly.com




SOURCES & CREDITS :

   NOAA       Earth
Advisory